createdAt,value
2019-05-17T00:01:01.295Z,9.80
2019-05-17T00:03:28.488Z,9.80
2019-05-17T00:05:57.069Z,9.80
2019-05-17T00:08:33.710Z,9.90
2019-05-17T00:10:53.720Z,9.90
2019-05-17T00:13:20.916Z,9.80
2019-05-17T00:15:48.120Z,9.90
2019-05-17T00:18:17.134Z,9.90
2019-05-17T00:20:51.858Z,9.90
2019-05-17T00:23:18.044Z,9.90
2019-05-17T00:25:44.265Z,9.80
2019-05-17T00:28:12.376Z,9.90
2019-05-17T00:30:39.664Z,9.90
2019-05-17T00:33:07.807Z,9.90
2019-05-17T00:35:37.561Z,9.90
2019-05-17T00:38:06.609Z,9.90
2019-05-17T00:40:36.326Z,9.90
2019-05-17T00:43:03.091Z,9.90
2019-05-17T00:45:30.277Z,9.90
2019-05-17T00:47:57.457Z,9.90
2019-05-17T00:50:24.653Z,9.90
2019-05-17T00:52:51.836Z,9.90
2019-05-17T00:55:19.028Z,9.90
2019-05-17T00:57:47.571Z,9.90
2019-05-17T01:00:17.029Z,9.90
2019-05-17T01:02:46.589Z,9.90
2019-05-17T01:05:13.685Z,10.00
2019-05-17T01:07:40.956Z,10.00
2019-05-17T01:10:09.541Z,9.90
2019-05-17T01:12:36.864Z,9.90
2019-05-17T01:15:07.313Z,9.90
2019-05-17T01:17:36.407Z,10.00
2019-05-17T01:20:04.040Z,9.90
2019-05-17T01:22:31.333Z,9.90
2019-05-17T01:24:59.113Z,9.90
2019-05-17T01:27:26.454Z,9.90
2019-05-17T01:29:53.825Z,9.90
2019-05-17T01:32:22.631Z,9.90
2019-05-17T01:34:50.141Z,9.90
2019-05-17T01:37:17.632Z,9.90
2019-05-17T01:39:46.920Z,9.90
2019-05-17T01:42:14.248Z,9.90
2019-05-17T01:44:41.444Z,9.80
2019-05-17T01:47:08.748Z,9.80
2019-05-17T01:49:36.315Z,9.80
2019-05-17T01:52:03.634Z,10.00
2019-05-17T01:54:30.829Z,10.00
2019-05-17T01:56:58.026Z,10.00
2019-05-17T01:59:26.783Z,10.00
2019-05-17T02:01:57.414Z,10.00
2019-05-17T02:04:26.675Z,10.00
2019-05-17T02:06:53.681Z,10.00
2019-05-17T02:09:34.765Z,9.90
2019-05-17T02:11:49.981Z,9.80
2019-05-17T02:14:17.190Z,9.80
2019-05-17T02:16:46.618Z,9.70
2019-05-17T02:19:13.457Z,9.70
2019-05-17T02:21:40.675Z,9.70
2019-05-17T02:24:08.100Z,9.70
2019-05-17T02:26:37.445Z,9.80
2019-05-17T02:29:04.488Z,9.80
2019-05-17T02:31:32.942Z,9.80
2019-05-17T02:34:03.027Z,9.80
2019-05-17T02:36:29.501Z,9.80
2019-05-17T02:38:56.709Z,9.80
2019-05-17T02:41:24.282Z,9.70
2019-05-17T02:43:53.457Z,9.70
2019-05-17T02:46:23.059Z,9.70
2019-05-17T02:48:49.661Z,9.60
2019-05-17T02:51:16.858Z,9.60
2019-05-17T02:53:44.144Z,9.60
2019-05-17T02:56:13.494Z,9.70
2019-05-17T02:58:43.634Z,9.60
2019-05-17T03:01:12.446Z,9.60
2019-05-17T03:03:38.640Z,9.70
2019-05-17T03:06:05.844Z,9.80
2019-05-17T03:08:34.076Z,9.80
2019-05-17T03:11:03.218Z,9.80
2019-05-17T03:13:32.882Z,9.80
2019-05-17T03:16:03.055Z,9.80
2019-05-17T03:18:29.286Z,9.90
2019-05-17T03:20:56.728Z,9.90
2019-05-17T03:23:23.921Z,9.90
2019-05-17T03:25:52.405Z,9.90
2019-05-17T03:28:23.253Z,9.90
2019-05-17T03:30:56.514Z,10.10
2019-05-17T03:33:26.572Z,10.00
2019-05-17T03:35:56.389Z,10.10
2019-05-17T03:38:22.779Z,10.10
2019-05-17T03:41:13.930Z,10.00
2019-05-17T03:43:22.426Z,10.00
2019-05-17T03:45:48.864Z,10.00
2019-05-17T03:48:16.072Z,10.00
2019-05-17T03:50:43.733Z,10.00
2019-05-17T03:53:13.168Z,10.00
2019-05-17T03:55:42.904Z,10.00
2019-05-17T03:58:09.244Z,10.10
2019-05-17T04:00:36.452Z,10.10
2019-05-17T04:03:03.658Z,10.20
2019-05-17T04:05:33.446Z,10.30
2019-05-17T04:08:03.041Z,10.20
2019-05-17T04:10:29.098Z,10.30
2019-05-17T04:12:56.311Z,10.20
2019-05-17T04:15:24.252Z,10.30
2019-05-17T04:17:53.760Z,10.30
2019-05-17T04:20:22.406Z,10.50
2019-05-17T04:22:52.769Z,10.40
2019-05-17T04:25:23.213Z,10.50
2019-05-17T04:27:49.227Z,10.40
2019-05-17T04:30:16.613Z,10.40
2019-05-17T04:32:44.849Z,10.40
2019-05-17T04:35:13.250Z,10.40
2019-05-17T04:37:44.503Z,10.50
2019-05-17T04:40:13.639Z,10.60
2019-05-17T04:42:39.441Z,10.70
2019-05-17T04:45:06.747Z,10.80
2019-05-17T04:47:34.133Z,10.90
2019-05-17T04:50:04.016Z,10.80
2019-05-17T04:52:33.344Z,11.00
2019-05-17T04:54:59.858Z,11.00
2019-05-17T04:57:27.051Z,11.00
2019-05-17T04:59:54.269Z,11.00
2019-05-17T05:02:23.591Z,11.00
2019-05-17T05:04:53.183Z,11.10
2019-05-17T05:07:22.487Z,11.10
2019-05-17T05:09:52.266Z,11.10
2019-05-17T05:12:18.789Z,11.10
2019-05-17T05:14:45.991Z,11.20
2019-05-17T05:17:13.187Z,11.10
2019-05-17T05:19:42.297Z,11.20
2019-05-17T05:22:09.640Z,11.10
2019-05-17T05:24:36.862Z,11.10
2019-05-17T05:27:04.130Z,11.10
2019-05-17T05:29:32.171Z,11.00
2019-05-17T05:31:59.587Z,11.10
2019-05-17T05:34:27.861Z,11.20
2019-05-17T05:36:55.049Z,11.10
2019-05-17T05:39:22.857Z,11.10
2019-05-17T05:41:51.858Z,11.10
2019-05-17T05:44:21.408Z,11.10
2019-05-17T05:46:48.290Z,11.20
2019-05-17T05:49:15.495Z,11.20
2019-05-17T05:51:42.703Z,11.20
2019-05-17T05:54:12.326Z,11.30
2019-05-17T05:56:42.061Z,11.30
2019-05-17T05:59:08.580Z,11.30
2019-05-17T06:01:35.810Z,11.20
2019-05-17T06:04:03.000Z,11.30
2019-05-17T06:06:32.103Z,11.30
2019-05-17T06:08:59.340Z,11.40
2019-05-17T06:11:26.556Z,11.40
2019-05-17T06:13:53.792Z,11.40
2019-05-17T06:16:22.783Z,11.40
2019-05-17T06:18:51.660Z,11.40
2019-05-17T06:21:19.006Z,11.50
2019-05-17T06:23:46.256Z,11.50
2019-05-17T06:26:13.471Z,11.40
2019-05-17T06:28:42.475Z,11.50
2019-05-17T06:31:09.952Z,11.60
2019-05-17T06:33:37.304Z,11.50
2019-05-17T06:36:04.549Z,11.60
2019-05-17T06:38:32.865Z,11.60
2019-05-17T06:41:01.605Z,11.60
2019-05-17T06:43:29.039Z,11.50
2019-05-17T06:45:56.261Z,11.60
2019-05-17T06:48:23.509Z,11.60
2019-05-17T06:50:51.991Z,11.70
2019-05-17T06:53:21.756Z,11.80
2019-05-17T06:55:48.620Z,11.80
2019-05-17T06:58:15.820Z,11.70
2019-05-17T07:00:43.036Z,11.70
2019-05-17T07:03:10.256Z,11.70
2019-05-17T07:05:40.387Z,11.70
2019-05-17T07:08:10.605Z,11.70
2019-05-17T07:10:36.956Z,11.70
2019-05-17T07:13:05.471Z,11.90
2019-05-17T07:15:43.636Z,11.90
2019-05-17T07:18:01.870Z,12.00
2019-05-17T07:20:29.922Z,12.10
2019-05-17T07:22:59.933Z,12.10
2019-05-17T07:25:26.439Z,12.20
2019-05-17T07:27:53.624Z,12.30
2019-05-17T07:30:21.517Z,12.50
2019-05-17T07:32:49.841Z,12.60
2019-05-17T07:35:19.769Z,12.60
2019-05-17T07:37:47.092Z,12.70
2019-05-17T07:40:14.592Z,12.70
2019-05-17T07:42:41.796Z,12.80
2019-05-17T07:45:10.081Z,13.00
2019-05-17T07:47:40.125Z,13.10
2019-05-17T07:50:07.084Z,13.20
2019-05-17T07:52:34.264Z,13.00
2019-05-17T07:55:02.571Z,12.90
2019-05-17T07:57:30.131Z,13.00
2019-05-17T07:59:59.779Z,13.20
2019-05-17T08:02:26.745Z,13.20
2019-05-17T08:04:53.933Z,13.30
2019-05-17T08:07:21.133Z,13.10
2019-05-17T08:09:50.637Z,12.90
2019-05-17T08:12:19.951Z,12.90
2019-05-17T08:14:47.188Z,12.70
2019-05-17T08:17:14.400Z,12.70
2019-05-17T08:19:41.585Z,12.60
2019-05-17T08:22:09.799Z,12.70
2019-05-17T08:24:37.200Z,12.80
2019-05-17T08:27:04.615Z,12.40
2019-05-17T08:29:31.804Z,12.70
2019-05-17T08:32:00.389Z,12.70
2019-05-17T08:34:29.319Z,12.90
2019-05-17T08:36:57.596Z,12.90
2019-05-17T08:39:24.780Z,13.00
2019-05-17T08:41:51.972Z,13.00
2019-05-17T08:44:19.322Z,13.10
2019-05-17T08:46:46.653Z,13.30
2019-05-17T08:49:13.841Z,13.40
2019-05-17T08:51:41.049Z,13.60
2019-05-17T08:54:10.239Z,13.80
2019-05-17T08:56:40.017Z,13.80
2019-05-17T08:59:06.540Z,13.60
2019-05-17T09:01:33.736Z,13.40
2019-05-17T09:04:00.936Z,13.60
2019-05-17T09:06:29.282Z,13.70
2019-05-17T09:08:56.856Z,13.60
2019-05-17T09:11:24.262Z,13.60
2019-05-17T09:13:58.092Z,13.70
2019-05-17T09:16:20.536Z,13.70
2019-05-17T09:18:50.049Z,13.90
2019-05-17T09:21:16.868Z,14.00
2019-05-17T09:23:44.078Z,14.00
2019-05-17T09:26:11.264Z,13.90
2019-05-17T09:28:39.430Z,14.10
2019-05-17T09:31:06.881Z,14.20
2019-05-17T09:33:34.087Z,14.30
2019-05-17T09:36:01.289Z,14.40
2019-05-17T09:38:29.631Z,14.20
2019-05-17T09:40:56.938Z,14.20
2019-05-17T09:43:24.106Z,14.30
2019-05-17T09:45:51.306Z,14.30
2019-05-17T09:48:19.641Z,14.40
2019-05-17T09:50:46.985Z,14.30
2019-05-17T09:53:14.177Z,14.50
2019-05-17T09:55:41.391Z,14.40
2019-05-17T09:58:09.885Z,14.60
2019-05-17T10:00:37.404Z,14.60
2019-05-17T10:03:04.804Z,14.50
2019-05-17T10:05:31.984Z,14.40
2019-05-17T10:08:00.027Z,14.80
2019-05-17T10:10:27.481Z,15.00
2019-05-17T10:12:54.660Z,15.00
2019-05-17T10:15:21.849Z,15.00
2019-05-17T10:17:49.037Z,14.80
2019-05-17T10:20:16.415Z,14.60
2019-05-17T10:22:44.000Z,14.40
2019-05-17T10:25:11.307Z,14.70
2019-05-17T10:27:40.648Z,14.90
2019-05-17T10:30:10.170Z,14.80
2019-05-17T10:32:40.450Z,14.80
2019-05-17T10:35:06.528Z,15.00
2019-05-17T10:37:33.737Z,14.70
2019-05-17T10:40:00.961Z,14.60
2019-05-17T10:42:30.549Z,14.60
2019-05-17T10:44:59.778Z,14.60
2019-05-17T10:47:26.509Z,14.80
2019-05-17T10:49:53.705Z,14.90
2019-05-17T10:52:20.891Z,14.90
2019-05-17T10:54:48.080Z,15.00
2019-05-17T10:57:15.252Z,14.90
2019-05-17T10:59:42.453Z,14.50
2019-05-17T11:02:10.081Z,14.60
2019-05-17T11:04:40.038Z,14.90
2019-05-17T11:07:06.898Z,14.90
2019-05-17T11:09:34.364Z,15.00
2019-05-17T11:12:01.554Z,15.00
2019-05-17T11:14:28.742Z,15.10
2019-05-17T11:16:55.938Z,15.20
2019-05-17T11:19:23.137Z,15.40
2019-05-17T11:21:50.340Z,15.40
2019-05-17T11:24:17.533Z,15.30
2019-05-17T11:26:44.910Z,15.00
2019-05-17T11:29:12.196Z,15.10
2019-05-17T11:31:39.418Z,15.30
2019-05-17T11:34:06.621Z,15.30
2019-05-17T11:36:33.828Z,14.80
2019-05-17T11:39:01.141Z,14.80
2019-05-17T11:41:28.361Z,15.30
2019-05-17T11:43:55.666Z,15.40
2019-05-17T11:46:35.341Z,15.50
2019-05-17T11:48:52.066Z,15.90
2019-05-17T11:51:19.335Z,16.10
2019-05-17T11:53:46.564Z,16.10
2019-05-17T11:56:13.764Z,16.00
2019-05-17T11:58:40.969Z,15.90
2019-05-17T12:01:08.419Z,15.60
2019-05-17T12:03:35.608Z,15.50
2019-05-17T12:06:03.037Z,15.30
2019-05-17T12:08:30.232Z,15.60
2019-05-17T12:10:57.497Z,15.20
2019-05-17T12:13:24.928Z,15.10
2019-05-17T12:15:52.132Z,15.30
2019-05-17T12:18:19.306Z,15.60
2019-05-17T12:20:46.684Z,15.80
2019-05-17T12:23:13.877Z,15.90
2019-05-17T12:25:41.088Z,16.10
2019-05-17T12:28:08.285Z,16.20
2019-05-17T12:30:35.481Z,16.40
2019-05-17T12:33:02.698Z,16.40
2019-05-17T12:35:29.963Z,16.10
2019-05-17T12:37:57.549Z,16.10
2019-05-17T12:40:25.926Z,16.00
2019-05-17T12:42:53.216Z,16.10
2019-05-17T12:45:20.432Z,16.00
2019-05-17T12:47:47.613Z,16.10
2019-05-17T12:50:15.501Z,16.20
2019-05-17T12:52:42.701Z,16.40
2019-05-17T12:55:10.290Z,16.20
2019-05-17T12:57:37.505Z,16.20
2019-05-17T13:00:05.059Z,16.00
2019-05-17T13:02:32.240Z,16.20
2019-05-17T13:04:59.540Z,16.10
2019-05-17T13:07:26.776Z,16.10
2019-05-17T13:09:53.961Z,16.00
2019-05-17T13:12:21.148Z,16.30
2019-05-17T13:14:48.362Z,16.70
2019-05-17T13:17:15.540Z,16.80
2019-05-17T13:19:42.733Z,16.60
2019-05-17T13:22:09.933Z,16.40
2019-05-17T13:24:37.120Z,16.00
2019-05-17T13:27:04.337Z,15.80
2019-05-17T13:29:31.541Z,15.80
2019-05-17T13:31:58.720Z,15.80
2019-05-17T13:34:25.924Z,15.60
2019-05-17T13:36:53.105Z,16.00
2019-05-17T13:39:20.288Z,16.00
2019-05-17T13:41:47.473Z,16.00
2019-05-17T13:44:15.992Z,16.00
2019-05-17T13:46:43.205Z,15.90
2019-05-17T13:49:10.922Z,16.10
2019-05-17T13:51:38.109Z,16.40
2019-05-17T13:54:05.419Z,16.20
2019-05-17T13:56:33.532Z,16.30
2019-05-17T13:59:00.717Z,16.20
2019-05-17T14:01:27.925Z,16.10
2019-05-17T14:03:55.171Z,16.20
2019-05-17T14:06:22.361Z,16.50
2019-05-17T14:08:49.544Z,16.20
2019-05-17T14:11:16.745Z,16.10
2019-05-17T14:13:43.943Z,16.20
2019-05-17T14:16:11.204Z,16.40
2019-05-17T14:18:38.404Z,16.30
2019-05-17T14:21:06.236Z,16.40
2019-05-17T14:23:33.537Z,16.50
2019-05-17T14:26:00.833Z,16.20
2019-05-17T14:28:28.035Z,16.10
2019-05-17T14:30:55.336Z,16.20
2019-05-17T14:33:22.540Z,16.40
2019-05-17T14:35:49.843Z,16.70
2019-05-17T14:38:17.034Z,16.70
2019-05-17T14:41:05.647Z,16.90
2019-05-17T14:43:14.409Z,17.00
2019-05-17T14:45:41.621Z,16.80
2019-05-17T14:48:08.817Z,16.60
2019-05-17T14:50:36.005Z,16.30
2019-05-17T14:53:03.189Z,16.30
2019-05-17T14:55:30.369Z,16.30
2019-05-17T14:57:57.570Z,16.30
2019-05-17T15:00:24.753Z,16.30
2019-05-17T15:02:51.945Z,16.40
2019-05-17T15:05:19.197Z,16.20
2019-05-17T15:07:46.440Z,16.20
2019-05-17T15:10:14.147Z,16.30
2019-05-17T15:12:41.341Z,16.50
2019-05-17T15:15:08.913Z,16.10
2019-05-17T15:17:36.213Z,16.10
2019-05-17T15:20:03.705Z,15.90
2019-05-17T15:22:31.186Z,16.00
2019-05-17T15:24:58.383Z,16.30
2019-05-17T15:27:25.593Z,16.50
2019-05-17T15:29:52.768Z,16.50
2019-05-17T15:32:19.958Z,16.30
2019-05-17T15:34:47.156Z,16.30
2019-05-17T15:37:14.407Z,16.10
2019-05-17T15:39:41.654Z,15.90
2019-05-17T15:42:08.885Z,15.90
2019-05-17T15:44:36.064Z,16.10
2019-05-17T15:47:03.277Z,16.00
2019-05-17T15:49:30.588Z,15.70
2019-05-17T15:51:57.768Z,15.40
2019-05-17T15:54:24.956Z,15.20
2019-05-17T15:56:52.151Z,15.50
2019-05-17T15:59:19.332Z,15.80
2019-05-17T16:01:46.695Z,15.80
2019-05-17T16:04:14.043Z,15.50
2019-05-17T16:06:41.333Z,15.50
2019-05-17T16:09:08.543Z,15.70
2019-05-17T16:11:35.748Z,15.70
2019-05-17T16:14:03.044Z,15.50
2019-05-17T16:16:30.240Z,15.60
2019-05-17T16:18:57.443Z,15.60
2019-05-17T16:21:24.692Z,15.70
2019-05-17T16:23:51.892Z,15.90
2019-05-17T16:26:19.113Z,15.70
2019-05-17T16:28:46.456Z,15.90
2019-05-17T16:31:13.664Z,15.70
2019-05-17T16:33:40.857Z,15.80
2019-05-17T16:36:08.064Z,15.80
2019-05-17T16:38:35.287Z,16.30
2019-05-17T16:41:02.581Z,16.70
2019-05-17T16:43:29.756Z,16.20
2019-05-17T16:45:57.381Z,16.20
2019-05-17T16:48:24.772Z,16.20
2019-05-17T16:50:51.973Z,15.90
2019-05-17T16:53:19.188Z,15.50
2019-05-17T16:55:46.396Z,15.50
2019-05-17T16:58:13.678Z,15.60
2019-05-17T17:00:41.485Z,15.70
2019-05-17T17:03:08.766Z,15.50
2019-05-17T17:05:36.280Z,15.30
2019-05-17T17:08:04.016Z,15.20
2019-05-17T17:10:31.218Z,15.20
2019-05-17T17:12:58.408Z,15.00
2019-05-17T17:15:25.611Z,15.00
2019-05-17T17:17:52.804Z,14.80
2019-05-17T17:20:21.422Z,15.00
2019-05-17T17:22:48.731Z,15.00
2019-05-17T17:25:16.130Z,15.10
2019-05-17T17:27:43.296Z,15.10
2019-05-17T17:30:10.905Z,15.10
2019-05-17T17:32:38.128Z,15.10
2019-05-17T17:35:05.862Z,15.20
2019-05-17T17:37:33.197Z,15.20
2019-05-17T17:40:00.405Z,15.20
2019-05-17T17:42:27.577Z,15.20
2019-05-17T17:44:54.774Z,15.10
2019-05-17T17:47:21.987Z,15.10
2019-05-17T17:49:49.292Z,15.20
2019-05-17T17:52:16.508Z,15.20
2019-05-17T17:54:43.704Z,14.90
2019-05-17T17:57:10.908Z,14.90
2019-05-17T17:59:38.104Z,14.90
2019-05-17T18:02:05.333Z,14.70
2019-05-17T18:04:32.553Z,14.00
2019-05-17T18:06:59.747Z,13.80
2019-05-17T18:09:27.065Z,14.00
2019-05-17T18:11:54.258Z,14.20
2019-05-17T18:14:21.439Z,14.40
2019-05-17T18:16:48.633Z,14.40
2019-05-17T18:19:15.825Z,14.30
2019-05-17T18:21:43.035Z,14.30
2019-05-17T18:24:10.224Z,14.30
2019-05-17T18:26:37.430Z,14.30
2019-05-17T18:29:07.850Z,14.10
2019-05-17T18:31:34.576Z,14.20
2019-05-17T18:34:01.812Z,13.80
2019-05-17T18:36:29.017Z,13.90
2019-05-17T18:38:56.836Z,13.80
2019-05-17T18:41:24.045Z,14.00
2019-05-17T18:43:51.249Z,14.10
2019-05-17T18:46:18.484Z,13.80
2019-05-17T18:48:46.073Z,13.70
2019-05-17T18:51:13.520Z,13.80
2019-05-17T18:53:42.117Z,13.70
2019-05-17T18:56:09.302Z,13.50
2019-05-17T18:58:39.277Z,13.30
2019-05-17T19:01:06.075Z,13.60
2019-05-17T19:03:33.386Z,13.60
2019-05-17T19:06:00.660Z,13.30
2019-05-17T19:08:28.031Z,13.50
2019-05-17T19:10:55.309Z,13.60
2019-05-17T19:13:22.518Z,13.70
2019-05-17T19:15:49.828Z,13.80
2019-05-17T19:18:17.389Z,13.70
2019-05-17T19:20:44.598Z,13.70
2019-05-17T19:23:11.889Z,13.70
2019-05-17T19:25:39.073Z,13.70
2019-05-17T19:28:06.268Z,13.70
2019-05-17T19:30:33.460Z,13.40
2019-05-17T19:33:00.641Z,13.00
2019-05-17T19:35:27.840Z,13.00
2019-05-17T19:37:55.045Z,13.20
2019-05-17T19:40:22.529Z,13.40
2019-05-17T19:42:49.736Z,13.40
2019-05-17T19:45:17.048Z,13.40
2019-05-17T19:47:44.249Z,13.30
2019-05-17T19:50:13.464Z,13.10
2019-05-17T19:52:40.717Z,13.30
2019-05-17T19:55:08.234Z,13.30
2019-05-17T19:57:35.469Z,13.40
2019-05-17T20:00:03.105Z,13.40
2019-05-17T20:02:30.304Z,13.40
2019-05-17T20:04:57.498Z,13.10
2019-05-17T20:07:24.827Z,13.00
2019-05-17T20:09:52.124Z,12.90
2019-05-17T20:12:19.432Z,12.90
2019-05-17T20:14:46.644Z,12.90
2019-05-17T20:17:13.849Z,12.60
2019-05-17T20:19:41.044Z,12.70
2019-05-17T20:22:08.235Z,12.60
2019-05-17T20:24:35.424Z,12.60
2019-05-17T20:27:02.635Z,12.70
2019-05-17T20:29:29.825Z,12.70
2019-05-17T20:31:57.022Z,12.40
2019-05-17T20:34:24.229Z,12.30
2019-05-17T20:36:51.444Z,12.40
2019-05-17T20:39:18.669Z,12.60
2019-05-17T20:41:46.036Z,12.50
2019-05-17T20:44:13.269Z,12.40
2019-05-17T20:46:40.452Z,12.50
2019-05-17T20:49:07.657Z,12.50
2019-05-17T20:51:34.877Z,12.60
2019-05-17T20:54:02.093Z,12.60
2019-05-17T20:56:33.024Z,12.70
2019-05-17T20:58:58.405Z,12.60
2019-05-17T21:01:25.721Z,12.50
2019-05-17T21:03:52.909Z,12.10
2019-05-17T21:06:20.116Z,12.10
2019-05-17T21:08:47.339Z,11.90
2019-05-17T21:11:14.533Z,12.10
2019-05-17T21:13:41.737Z,11.90
2019-05-17T21:16:08.924Z,12.10
2019-05-17T21:18:36.113Z,12.00
2019-05-17T21:21:03.309Z,12.00
2019-05-17T21:23:30.488Z,12.10
2019-05-17T21:25:59.385Z,12.10
2019-05-17T21:28:26.796Z,12.10
2019-05-17T21:30:53.984Z,12.00
2019-05-17T21:33:21.170Z,12.10
2019-05-17T21:35:48.368Z,12.10
2019-05-17T21:38:15.537Z,12.20
2019-05-17T21:40:42.741Z,12.10
2019-05-17T21:43:09.925Z,12.10
2019-05-17T21:45:37.122Z,12.10
2019-05-17T21:48:04.296Z,12.30
2019-05-17T21:50:31.500Z,12.30
2019-05-17T21:52:58.676Z,12.30
2019-05-17T21:55:25.884Z,11.90
2019-05-17T21:57:53.081Z,11.90
2019-05-17T22:01:10.648Z,12.00
2019-05-17T22:03:37.828Z,11.90
2019-05-17T22:06:05.011Z,12.00
2019-05-17T22:08:32.207Z,12.00
2019-05-17T22:10:59.400Z,12.00
2019-05-17T22:13:26.617Z,12.00
2019-05-17T22:15:53.801Z,12.10
2019-05-17T22:18:21.011Z,12.00
2019-05-17T22:20:48.213Z,11.80
2019-05-17T22:23:15.425Z,11.80
2019-05-17T22:25:42.621Z,11.90
2019-05-17T22:28:09.800Z,11.80
2019-05-17T22:30:37.313Z,11.80
2019-05-17T22:33:04.506Z,11.90
2019-05-17T22:35:31.725Z,11.90
2019-05-17T22:37:58.927Z,11.80
2019-05-17T22:40:26.242Z,11.90
2019-05-17T22:42:53.432Z,11.90
2019-05-17T22:45:20.632Z,11.90
2019-05-17T22:47:47.920Z,11.90
2019-05-17T22:50:15.125Z,12.00
2019-05-17T22:52:42.320Z,11.90
2019-05-17T22:55:09.824Z,11.80
2019-05-17T22:57:37.020Z,11.80
2019-05-17T23:00:04.606Z,11.70
2019-05-17T23:02:32.037Z,11.70
2019-05-17T23:04:59.213Z,11.70
2019-05-17T23:07:26.404Z,11.80
2019-05-17T23:09:54.400Z,11.70
2019-05-17T23:12:21.904Z,11.80
2019-05-17T23:14:49.109Z,11.80
2019-05-17T23:17:16.401Z,11.60
2019-05-17T23:19:43.588Z,11.70
2019-05-17T23:22:10.781Z,11.80
2019-05-17T23:24:37.972Z,11.70
2019-05-17T23:27:05.189Z,11.70
2019-05-17T23:29:32.389Z,11.70
2019-05-17T23:31:59.694Z,11.70
2019-05-17T23:34:26.860Z,11.60
2019-05-17T23:36:54.056Z,11.60
2019-05-17T23:39:21.248Z,11.60
2019-05-17T23:41:48.448Z,11.60
2019-05-17T23:44:15.669Z,11.70
2019-05-17T23:46:42.876Z,11.70
2019-05-17T23:49:10.061Z,11.80
2019-05-17T23:51:37.249Z,11.70
2019-05-17T23:54:04.545Z,11.70
2019-05-17T23:56:31.753Z,11.80
2019-05-17T23:58:58.945Z,11.80
